createdAt,value
2023-01-20T00:01:56.575Z,0.16
2023-01-20T00:05:39.246Z,0.13
2023-01-20T00:09:23.314Z,0.11
2023-01-20T00:13:05.995Z,0.07
2023-01-20T00:16:48.683Z,0.08
2023-01-20T00:20:31.348Z,0.07
2023-01-20T00:24:14.083Z,0.07
2023-01-20T00:28:01.096Z,0.06
2023-01-20T00:31:43.873Z,0.07
2023-01-20T00:35:26.604Z,0.06
2023-01-20T00:39:09.313Z,0.05
2023-01-20T00:42:52.037Z,0.08
2023-01-20T00:46:36.208Z,0.08
2023-01-20T00:50:18.997Z,0.09
2023-01-20T00:54:01.741Z,0.08
2023-01-20T00:57:44.377Z,0.07
2023-01-20T01:01:27.113Z,0.08
2023-01-20T01:05:11.520Z,0.10
2023-01-20T01:08:54.537Z,0.07
2023-01-20T01:12:37.284Z,0.07
2023-01-20T01:16:20.251Z,0.08
2023-01-20T01:20:03.525Z,0.06
2023-01-20T01:23:47.724Z,-0.01
2023-01-20T01:27:30.687Z,-0.02
2023-01-20T01:31:13.402Z,-0.01
2023-01-20T01:34:56.112Z,0.01
2023-01-20T01:38:38.782Z,-0.03
2023-01-20T01:42:25.668Z,-0.08
2023-01-20T01:46:08.479Z,-0.08
2023-01-20T01:49:51.148Z,-0.11
2023-01-20T01:53:37.855Z,-0.17
2023-01-20T01:57:22.076Z,-0.18
2023-01-20T02:01:05.249Z,-0.25
2023-01-20T02:04:48.666Z,-0.21
2023-01-20T02:08:32.837Z,-0.19
2023-01-20T02:12:17.407Z,-0.20
2023-01-20T02:16:06.057Z,-0.25
2023-01-20T02:20:06.674Z,-0.32
2023-01-20T02:24:08.923Z,-0.33
2023-01-20T02:28:13.233Z,-0.33
2023-01-20T02:32:13.179Z,-0.39
2023-01-20T02:35:58.300Z,-0.40
2023-01-20T02:39:44.473Z,-0.35
2023-01-20T02:43:32.614Z,-0.36
2023-01-20T02:47:20.503Z,-0.33
2023-01-20T02:51:07.665Z,-0.30
2023-01-20T02:54:52.550Z,-0.28
2023-01-20T02:58:38.813Z,-0.27
2023-01-20T03:02:25.643Z,-0.24
2023-01-20T03:06:11.556Z,-0.29
2023-01-20T03:09:57.188Z,-0.29
2023-01-20T03:13:44.838Z,-0.30
2023-01-20T03:17:28.893Z,-0.33
2023-01-20T03:21:15.109Z,-0.29
2023-01-20T03:24:58.125Z,-0.27
2023-01-20T03:28:42.409Z,-0.31
2023-01-20T03:32:26.922Z,-0.29
2023-01-20T03:36:11.152Z,-0.21
2023-01-20T03:39:53.904Z,-0.29
2023-01-20T03:43:42.394Z,-0.34
2023-01-20T03:47:30.248Z,-0.39
2023-01-20T03:51:19.597Z,-0.40
2023-01-20T03:55:05.872Z,-0.50
2023-01-20T03:58:51.616Z,-0.57
2023-01-20T04:02:34.605Z,-0.65
2023-01-20T04:06:20.499Z,-0.61
2023-01-20T04:10:07.074Z,-0.72
2023-01-20T04:13:52.605Z,-0.68
2023-01-20T04:17:35.488Z,-0.77
2023-01-20T04:21:24.565Z,-0.82
2023-01-20T04:25:13.191Z,-0.93
2023-01-20T04:28:56.046Z,-0.98
2023-01-20T04:32:38.765Z,-1.00
2023-01-20T04:36:22.740Z,-1.01
2023-01-20T04:40:06.028Z,-0.93
2023-01-20T04:43:48.799Z,-0.91
2023-01-20T04:47:31.685Z,-0.91
2023-01-20T04:51:15.125Z,-0.89
2023-01-20T04:54:59.140Z,-0.87
2023-01-20T04:58:42.439Z,-0.83
2023-01-20T05:02:25.312Z,-0.82
2023-01-20T05:06:08.175Z,-0.83
2023-01-20T05:09:50.819Z,-0.84
2023-01-20T05:13:38.525Z,-0.83
2023-01-20T05:17:21.220Z,-0.84
2023-01-20T05:21:05.524Z,-0.78
2023-01-20T05:24:48.185Z,-0.81
2023-01-20T05:28:31.175Z,-0.77
2023-01-20T05:32:15.221Z,-0.77
2023-01-20T05:35:57.906Z,-0.71
2023-01-20T05:39:40.597Z,-0.63
2023-01-20T05:43:23.274Z,-0.73
2023-01-20T05:47:06.041Z,-0.75
2023-01-20T05:50:50.318Z,-0.74
2023-01-20T05:54:32.996Z,-0.74
2023-01-20T05:58:16.095Z,-0.73
2023-01-20T06:01:58.990Z,-0.64
2023-01-20T06:05:41.722Z,-0.74
2023-01-20T06:09:25.823Z,-0.80
2023-01-20T06:13:11.963Z,-0.79
2023-01-20T06:16:55.307Z,-0.82
2023-01-20T06:20:37.923Z,-0.89
2023-01-20T06:24:20.611Z,-0.95
2023-01-20T06:28:04.832Z,-0.98
2023-01-20T06:31:47.785Z,-1.01
2023-01-20T06:35:30.668Z,-0.99
2023-01-20T06:39:13.795Z,-1.05
2023-01-20T06:42:58.687Z,-1.12
2023-01-20T06:46:47.977Z,-1.21
2023-01-20T06:50:30.945Z,-1.29
2023-01-20T06:54:13.610Z,-1.37
2023-01-20T06:57:56.276Z,-1.42
2023-01-20T07:01:39.463Z,-1.39
2023-01-20T07:05:23.553Z,-1.44
2023-01-20T07:09:07.673Z,-1.46
2023-01-20T07:12:50.373Z,-1.47
2023-01-20T07:16:33.717Z,-1.44
2023-01-20T07:20:16.567Z,-1.47
2023-01-20T07:24:02.534Z,-1.58
2023-01-20T07:27:45.219Z,-1.67
2023-01-20T07:31:29.363Z,-1.46
2023-01-20T07:35:12.421Z,-1.38
2023-01-20T07:38:55.501Z,-1.57
2023-01-20T07:42:39.539Z,-1.65
2023-01-20T07:46:22.625Z,-1.56
2023-01-20T07:50:06.095Z,-1.50
2023-01-20T07:53:50.928Z,-1.41
2023-01-20T07:57:33.621Z,-1.42
2023-01-20T08:01:20.423Z,-1.42
2023-01-20T08:05:03.151Z,-1.40
2023-01-20T08:08:45.843Z,-1.39
2023-01-20T08:12:29.335Z,-1.33
2023-01-20T08:16:13.764Z,-1.20
2023-01-20T08:19:57.798Z,-1.08
2023-01-20T08:23:41.876Z,-1.04
2023-01-20T08:27:24.557Z,-0.99
2023-01-20T08:31:09.406Z,-0.97
2023-01-20T08:34:52.924Z,-0.88
2023-01-20T08:38:40.265Z,-0.95
2023-01-20T08:42:27.441Z,-0.93
2023-01-20T08:46:16.125Z,-0.86
2023-01-20T08:50:05.427Z,-0.76
2023-01-20T08:53:50.163Z,-0.68
2023-01-20T08:57:32.904Z,-0.53
2023-01-20T09:01:17.446Z,-0.51
2023-01-20T09:05:00.145Z,-0.45
2023-01-20T09:08:42.942Z,-0.40
2023-01-20T09:12:27.069Z,-0.38
2023-01-20T09:16:10.240Z,-0.38
2023-01-20T09:19:52.916Z,-0.35
2023-01-20T09:23:37.092Z,-0.44
2023-01-20T09:27:19.760Z,-0.39
2023-01-20T09:31:07.925Z,-0.36
2023-01-20T09:34:50.665Z,-0.22
2023-01-20T09:38:51.175Z,-0.09
2023-01-20T09:42:59.588Z,-0.12
2023-01-20T09:47:12.781Z,-0.03
2023-01-20T09:51:15.081Z,0.01
2023-01-20T09:55:00.607Z,-0.06
2023-01-20T09:58:47.594Z,-0.10
2023-01-20T10:02:34.984Z,0.01
2023-01-20T10:06:24.823Z,-0.16
2023-01-20T10:10:13.095Z,-0.25
2023-01-20T10:13:59.881Z,-0.35
2023-01-20T10:17:48.613Z,-0.31
2023-01-20T10:21:35.478Z,-0.24
2023-01-20T10:25:22.515Z,-0.14
2023-01-20T10:29:08.985Z,-0.06
2023-01-20T10:32:56.886Z,0.10
2023-01-20T10:36:40.210Z,0.25
2023-01-20T10:40:35.228Z,0.18
2023-01-20T10:44:18.059Z,0.31
2023-01-20T10:48:10.283Z,0.37
2023-01-20T10:52:02.762Z,0.28
2023-01-20T10:55:58.013Z,0.22
2023-01-20T10:59:44.240Z,0.18
2023-01-20T11:03:28.923Z,0.21
2023-01-20T11:07:16.966Z,0.37
2023-01-20T11:11:01.043Z,0.30
2023-01-20T11:14:44.308Z,0.26
2023-01-20T11:18:33.876Z,0.22
2023-01-20T11:22:20.789Z,0.30
2023-01-20T11:26:10.064Z,0.37
2023-01-20T11:29:56.607Z,0.33
2023-01-20T11:33:40.666Z,0.26
2023-01-20T11:37:26.578Z,0.36
2023-01-20T11:41:21.658Z,0.36
2023-01-20T11:45:20.941Z,0.28
2023-01-20T11:49:16.987Z,0.38
2023-01-20T11:53:14.650Z,0.54
2023-01-20T11:57:00.891Z,0.50
2023-01-20T12:00:44.985Z,0.57
2023-01-20T12:04:52.837Z,0.52
2023-01-20T12:08:43.411Z,0.48
2023-01-20T12:12:32.965Z,0.51
2023-01-20T12:16:16.469Z,0.56
2023-01-20T12:20:16.421Z,0.56
2023-01-20T12:24:03.178Z,0.69
2023-01-20T12:27:50.097Z,0.73
2023-01-20T12:31:35.892Z,0.59
2023-01-20T12:35:21.849Z,0.46
2023-01-20T12:39:25.105Z,0.55
2023-01-20T12:43:30.081Z,0.46
2023-01-20T12:47:19.672Z,0.48
2023-01-20T12:51:12.990Z,0.50
2023-01-20T12:55:23.654Z,0.45
2023-01-20T12:59:11.694Z,0.30
2023-01-20T13:03:08.394Z,0.22
2023-01-20T13:07:04.250Z,0.09
2023-01-20T13:10:57.326Z,0.05
2023-01-20T13:14:43.052Z,0.03
2023-01-20T13:18:29.336Z,0.04
2023-01-20T13:22:16.351Z,-0.05
2023-01-20T13:25:59.813Z,-0.09
2023-01-20T13:29:44.798Z,-0.18
2023-01-20T13:33:34.076Z,-0.16
2023-01-20T13:37:33.014Z,-0.24
2023-01-20T13:41:50.498Z,-0.40
2023-01-20T13:45:33.237Z,-0.44
2023-01-20T13:49:26.670Z,-0.44
2023-01-20T13:53:27.958Z,-0.48
2023-01-20T13:57:38.437Z,-0.50
2023-01-20T14:01:23.940Z,-0.39
2023-01-20T14:05:24.917Z,-0.25
2023-01-20T14:09:12.993Z,-0.26
2023-01-20T14:12:55.688Z,-0.28
2023-01-20T14:16:39.696Z,-0.24
2023-01-20T14:20:24.688Z,-0.20
2023-01-20T14:24:22.331Z,-0.25
2023-01-20T14:28:19.213Z,-0.28
2023-01-20T14:32:01.925Z,-0.30
2023-01-20T14:35:44.966Z,-0.31
2023-01-20T14:39:28.801Z,-0.33
2023-01-20T14:43:19.532Z,-0.33
2023-01-20T14:47:03.337Z,-0.44
2023-01-20T14:50:49.752Z,-0.44
2023-01-20T14:54:37.446Z,-0.38
2023-01-20T14:58:21.383Z,-0.37
2023-01-20T15:02:07.056Z,-0.33
2023-01-20T15:05:56.195Z,-0.38
2023-01-20T15:09:43.110Z,-0.39
2023-01-20T15:13:31.116Z,-0.36
2023-01-20T15:17:17.680Z,-0.36
2023-01-20T15:21:17.222Z,-0.42
2023-01-20T15:25:07.319Z,-0.46
2023-01-20T15:28:51.467Z,-0.47
2023-01-20T15:32:34.161Z,-0.46
2023-01-20T15:36:25.114Z,-0.49
2023-01-20T15:40:15.217Z,-0.39
2023-01-20T15:43:59.404Z,-0.40
2023-01-20T15:47:42.607Z,-0.40
2023-01-20T15:51:26.082Z,-0.45
2023-01-20T15:55:11.935Z,-0.41
2023-01-20T15:58:54.931Z,-0.52
2023-01-20T16:02:39.042Z,-0.47
2023-01-20T16:06:22.501Z,-0.45
2023-01-20T16:10:05.535Z,-0.43
2023-01-20T16:13:48.195Z,-0.59
2023-01-20T16:17:32.464Z,-0.65
2023-01-20T16:21:17.772Z,-0.69
2023-01-20T16:25:00.431Z,-0.68
2023-01-20T16:28:46.021Z,-0.61
2023-01-20T16:32:28.683Z,-0.61
2023-01-20T16:36:16.384Z,-0.63
2023-01-20T16:40:00.654Z,-0.64
2023-01-20T16:43:43.511Z,-0.65
2023-01-20T16:47:26.192Z,-0.61
2023-01-20T16:51:08.893Z,-0.54
2023-01-20T16:54:51.619Z,-0.46
2023-01-20T16:58:35.647Z,-0.26
2023-01-20T17:02:18.378Z,-0.35
2023-01-20T17:06:01.035Z,-0.47
2023-01-20T17:09:43.877Z,-0.64
2023-01-20T17:13:26.555Z,-0.72
2023-01-20T17:17:10.630Z,-0.78
2023-01-20T17:20:53.332Z,-0.70
2023-01-20T17:24:36.006Z,-0.78
2023-01-20T17:28:18.706Z,-0.77
2023-01-20T17:32:01.507Z,-0.69
2023-01-20T17:35:47.185Z,-0.76
2023-01-20T17:39:29.903Z,-0.71
2023-01-20T17:43:12.589Z,-0.59
2023-01-20T17:46:55.287Z,-0.46
2023-01-20T17:50:38.895Z,-0.49
2023-01-20T17:54:22.914Z,-0.44
2023-01-20T17:58:05.550Z,-0.39
2023-01-20T18:01:52.201Z,-0.39
2023-01-20T18:05:35.831Z,-0.37
2023-01-20T18:09:18.451Z,-0.42
2023-01-20T18:13:02.513Z,-0.55
2023-01-20T18:16:45.219Z,-0.45
2023-01-20T18:20:28.211Z,-0.54
2023-01-20T18:24:12.617Z,-0.58
2023-01-20T18:27:55.385Z,-0.57
2023-01-20T18:31:39.867Z,-0.58
2023-01-20T18:35:22.639Z,-0.54
2023-01-20T18:39:07.081Z,-0.63
2023-01-20T18:42:49.714Z,-0.59
2023-01-20T18:46:32.406Z,-0.59
2023-01-20T18:50:17.926Z,-0.66
2023-01-20T18:54:02.221Z,-0.64
2023-01-20T18:57:44.979Z,-0.69
2023-01-20T19:01:29.737Z,-0.77
2023-01-20T19:05:12.403Z,-0.79
2023-01-20T19:08:57.323Z,-0.71
2023-01-20T19:12:39.979Z,-0.74
2023-01-20T19:16:24.141Z,-0.75
2023-01-20T19:20:08.054Z,-0.86
2023-01-20T19:23:51.149Z,-0.86
2023-01-20T19:27:35.156Z,-0.89
2023-01-20T19:31:19.564Z,-0.90
2023-01-20T19:35:02.237Z,-0.91
2023-01-20T19:38:45.073Z,-1.11
2023-01-20T19:42:27.717Z,-1.16
2023-01-20T19:46:13.026Z,-1.08
2023-01-20T19:49:55.683Z,-1.14
2023-01-20T19:53:38.409Z,-1.30
2023-01-20T19:57:21.100Z,-1.17
2023-01-20T20:01:07.512Z,-1.20
2023-01-20T20:04:51.539Z,-1.16
2023-01-20T20:08:36.177Z,-1.19
2023-01-20T20:12:18.857Z,-1.13
2023-01-20T20:16:02.763Z,-1.10
2023-01-20T20:19:45.487Z,-1.27
2023-01-20T20:23:29.873Z,-1.33
2023-01-20T20:27:12.604Z,-1.31
2023-01-20T20:30:56.454Z,-1.24
2023-01-20T20:34:39.198Z,-1.26
2023-01-20T20:38:21.908Z,-1.18
2023-01-20T20:42:05.994Z,-1.21
2023-01-20T20:45:48.737Z,-1.27
2023-01-20T20:49:31.927Z,-1.21
2023-01-20T20:53:14.613Z,-1.31
2023-01-20T20:56:57.286Z,-1.32
2023-01-20T21:00:44.934Z,-1.31
2023-01-20T21:04:27.629Z,-1.31
2023-01-20T21:08:10.268Z,-1.33
2023-01-20T21:11:52.953Z,-1.22
2023-01-20T21:15:35.780Z,-1.25
2023-01-20T21:19:19.848Z,-1.31
2023-01-20T21:23:03.394Z,-1.27
2023-01-20T21:26:46.168Z,-1.29
2023-01-20T21:30:28.925Z,-1.25
2023-01-20T21:34:14.472Z,-1.26
2023-01-20T21:37:58.547Z,-1.27
2023-01-20T21:41:41.585Z,-1.22
2023-01-20T21:45:24.305Z,-1.21
2023-01-20T21:49:25.077Z,-1.18
2023-01-20T21:53:09.146Z,-1.14
2023-01-20T21:56:52.388Z,-1.32
2023-01-20T22:00:35.090Z,-1.29
2023-01-20T22:04:18.231Z,-1.31
2023-01-20T22:08:01.278Z,-1.34
2023-01-20T22:11:45.281Z,-1.34
2023-01-20T22:15:28.245Z,-1.32
2023-01-20T22:19:13.001Z,-1.39
2023-01-20T22:22:55.842Z,-1.40
2023-01-20T22:26:38.546Z,-1.40
2023-01-20T22:30:25.289Z,-1.36
2023-01-20T22:34:09.203Z,-1.44
2023-01-20T22:37:56.211Z,-1.32
2023-01-20T22:41:38.967Z,-1.34
2023-01-20T22:45:23.100Z,-1.47
2023-01-20T22:49:05.932Z,-1.49
2023-01-20T22:52:48.658Z,-1.42
2023-01-20T22:56:33.555Z,-1.39
2023-01-20T23:00:17.497Z,-1.42
2023-01-20T23:04:03.374Z,-1.36
2023-01-20T23:07:46.070Z,-1.43
2023-01-20T23:11:29.066Z,-1.43
2023-01-20T23:15:11.961Z,-1.53
2023-01-20T23:18:57.277Z,-1.53
2023-01-20T23:22:41.421Z,-1.50
2023-01-20T23:26:25.380Z,-1.49
2023-01-20T23:30:10.179Z,-1.51
2023-01-20T23:33:54.557Z,-1.57
2023-01-20T23:37:37.355Z,-1.58
2023-01-20T23:41:21.572Z,-1.65
2023-01-20T23:45:04.499Z,-1.70
2023-01-20T23:48:47.551Z,-1.66
2023-01-20T23:52:30.350Z,-1.68
2023-01-20T23:56:15.475Z,-1.80
2023-01-20T23:59:59.497Z,-1.72
